ANA39 RJTT-RJOO
Flight info
| Callsign | ANA39 |
|---|---|
| Flight time | N/A |
| Altitude | 32000 |
| Route | LAXAS Y56 TOHME Y54 KOHWA Y546 AGPUK MIRAI ABENO IKOMA |
| Aircraft | A20N/M-SDE2E3FGHIRWXY/LB1 |
Departure
| Time | 2026-05-05 14:39 |
|---|---|
| Airport | Tokyo Haneda International Airport (RJTT) |
Arrival
| Time | N/A |
|---|---|
| Airport | Osaka Itami International Airport (RJOO) |
| Time | Latitude | Longitude | Altitude | Speed | Heading |
|---|---|---|---|---|---|
| 2026-05-05 14:02 | 35.55045 | 139.79023 | 27 ft | 0 kts | 239° |
| 2026-05-05 14:21 | 35.55046 | 139.79025 | 27 ft | 2 kts | 239° |
| 2026-05-05 14:21 | 35.55054 | 139.79042 | 27 ft | 2 kts | 239° |
| 2026-05-05 14:21 | 35.55062 | 139.79058 | 27 ft | 2 kts | 239° |
| 2026-05-05 14:21 | 35.55070 | 139.79075 | 26 ft | 2 kts | 239° |
| 2026-05-05 14:22 | 35.55078 | 139.79091 | 27 ft | 2 kts | 239° |
| 2026-05-05 14:22 | 35.55086 | 139.79108 | 27 ft | 2 kts | 239° |
| 2026-05-05 14:22 | 35.55094 | 139.79124 | 28 ft | 2 kts | 239° |
| 2026-05-05 14:22 | 35.55100 | 139.79136 | 28 ft | 0 kts | 250° |
| 2026-05-05 14:29 | 35.55102 | 139.79122 | 28 ft | 4 kts | 281° |
| 2026-05-05 14:29 | 35.55127 | 139.79083 | 27 ft | 8 kts | 322° |
| 2026-05-05 14:29 | 35.55190 | 139.79038 | 27 ft | 13 kts | 334° |
| 2026-05-05 14:30 | 35.55276 | 139.78983 | 27 ft | 16 kts | 331° |
| 2026-05-05 14:30 | 35.55357 | 139.78927 | 27 ft | 14 kts | 338° |
| 2026-05-05 14:30 | 35.55401 | 139.78960 | 27 ft | 8 kts | 50° |
| 2026-05-05 14:30 | 35.55456 | 139.79052 | 29 ft | 19 kts | 58° |
| 2026-05-05 14:31 | 35.55550 | 139.79168 | 27 ft | 1 kts | 1° |
| 2026-05-05 14:31 | 35.55605 | 139.79133 | 25 ft | 17 kts | 316° |
| 2026-05-05 14:31 | 35.55733 | 139.79009 | 27 ft | 31 kts | 329° |
| 2026-05-05 14:31 | 35.55908 | 139.78880 | 23 ft | 19 kts | 318° |
| 2026-05-05 14:32 | 35.56010 | 139.78808 | 26 ft | 22 kts | 328° |
| 2026-05-05 14:32 | 35.56183 | 139.78689 | 23 ft | 33 kts | 329° |
| 2026-05-05 14:32 | 35.56335 | 139.78577 | 26 ft | 31 kts | 329° |
| 2026-05-05 14:32 | 35.56404 | 139.78530 | 29 ft | 7 kts | 326° |
| 2026-05-05 14:33 | 35.56466 | 139.78500 | 26 ft | 12 kts | 1° |
| 2026-05-05 14:33 | 35.56510 | 139.78531 | 28 ft | 5 kts | 55° |
| 2026-05-05 14:33 | 35.56511 | 139.78533 | 28 ft | 0 kts | 55° |
| 2026-05-05 14:36 | 35.56516 | 139.78541 | 28 ft | 6 kts | 56° |
| 2026-05-05 14:37 | 35.56559 | 139.78640 | 29 ft | 17 kts | 72° |
| 2026-05-05 14:37 | 35.56556 | 139.78693 | 30 ft | 4 kts | 135° |
| 2026-05-05 14:37 | 35.56474 | 139.78744 | 30 ft | 24 kts | 155° |
| 2026-05-05 14:37 | 35.56355 | 139.78828 | 28 ft | 36 kts | 147° |
| 2026-05-05 14:38 | 35.56265 | 139.78895 | 29 ft | 0 kts | 149° |
| 2026-05-05 14:38 | 35.56246 | 139.78908 | 28 ft | 6 kts | 150° |
| 2026-05-05 14:38 | 35.56177 | 139.78956 | 27 ft | 32 kts | 151° |
| 2026-05-05 14:38 | 35.55772 | 139.79231 | 27 ft | 98 kts | 151° |
| 2026-05-05 14:39 | 35.55024 | 139.79761 | 30 ft | 147 kts | 151° |
| 2026-05-05 14:39 | 35.54100 | 139.80447 | 464 ft | 152 kts | 148° |
| 2026-05-05 14:39 | 35.53220 | 139.81178 | 1022 ft | 156 kts | 150° |
| 2026-05-05 14:39 | 35.52316 | 139.81830 | 1792 ft | 147 kts | 155° |
| 2026-05-05 14:40 | 35.51380 | 139.82441 | 2255 ft | 160 kts | 156° |
| 2026-05-05 14:40 | 35.50337 | 139.83119 | 2645 ft | 180 kts | 155° |
| 2026-05-05 14:40 | 35.49176 | 139.83905 | 3075 ft | 200 kts | 154° |
| 2026-05-05 14:40 | 35.47893 | 139.84799 | 3560 ft | 224 kts | 153° |
| 2026-05-05 14:41 | 35.46497 | 139.85782 | 4209 ft | 242 kts | 154° |
| 2026-05-05 14:41 | 35.44862 | 139.86339 | 4914 ft | 254 kts | 180° |
| 2026-05-05 14:41 | 35.43103 | 139.85901 | 5863 ft | 260 kts | 206° |
| 2026-05-05 14:41 | 35.41600 | 139.84624 | 6779 ft | 268 kts | 218° |
| 2026-05-05 14:42 | 35.40154 | 139.83213 | 7756 ft | 270 kts | 218° |
| 2026-05-05 14:42 | 35.38664 | 139.81756 | 8815 ft | 272 kts | 218° |
| 2026-05-05 14:42 | 35.37192 | 139.80325 | 9799 ft | 276 kts | 218° |
| 2026-05-05 14:42 | 35.35659 | 139.78845 | 10560 ft | 289 kts | 218° |
| 2026-05-05 14:43 | 35.34010 | 139.77259 | 10934 ft | 313 kts | 218° |
| 2026-05-05 14:43 | 35.32237 | 139.75558 | 11403 ft | 331 kts | 218° |
| 2026-05-05 14:43 | 35.30417 | 139.73802 | 12234 ft | 336 kts | 218° |
| 2026-05-05 14:43 | 35.28615 | 139.71950 | 13094 ft | 340 kts | 220° |
| 2026-05-05 14:44 | 35.26816 | 139.70040 | 13956 ft | 345 kts | 220° |
| 2026-05-05 14:44 | 35.24992 | 139.68102 | 14753 ft | 349 kts | 219° |
| 2026-05-05 14:44 | 35.23149 | 139.66158 | 15552 ft | 352 kts | 219° |
| 2026-05-05 14:44 | 35.21285 | 139.64204 | 16348 ft | 355 kts | 219° |
| 2026-05-05 14:45 | 35.19399 | 139.62235 | 17135 ft | 358 kts | 219° |
| 2026-05-05 14:45 | 35.17494 | 139.60251 | 17896 ft | 362 kts | 219° |
| 2026-05-05 14:45 | 35.15564 | 139.58244 | 18639 ft | 365 kts | 219° |
| 2026-05-05 14:45 | 35.13628 | 139.56233 | 19371 ft | 366 kts | 220° |
| 2026-05-05 14:46 | 35.11689 | 139.54223 | 20132 ft | 366 kts | 221° |
| 2026-05-05 14:46 | 35.09760 | 139.52189 | 20865 ft | 366 kts | 225° |
| 2026-05-05 14:46 | 35.08142 | 139.49802 | 21599 ft | 365 kts | 238° |
| 2026-05-05 14:46 | 35.07024 | 139.47039 | 22367 ft | 363 kts | 250° |
| 2026-05-05 14:47 | 35.06413 | 139.44056 | 23154 ft | 363 kts | 258° |
| 2026-05-05 14:47 | 35.05925 | 139.41034 | 23923 ft | 362 kts | 258° |
| 2026-05-05 14:47 | 35.05431 | 139.38018 | 24543 ft | 362 kts | 258° |
| 2026-05-05 14:47 | 35.04932 | 139.35007 | 25163 ft | 361 kts | 257° |
| 2026-05-05 14:48 | 35.04432 | 139.32006 | 25766 ft | 361 kts | 257° |
| 2026-05-05 14:48 | 35.03931 | 139.29005 | 26352 ft | 361 kts | 257° |
| 2026-05-05 14:48 | 35.03428 | 139.26000 | 26925 ft | 361 kts | 257° |
| 2026-05-05 14:48 | 35.02924 | 139.22995 | 27478 ft | 361 kts | 257° |
| 2026-05-05 14:49 | 35.02420 | 139.19996 | 28024 ft | 361 kts | 257° |
| 2026-05-05 14:49 | 35.01915 | 139.16989 | 28558 ft | 361 kts | 257° |
| 2026-05-05 14:49 | 35.01410 | 139.13986 | 29062 ft | 362 kts | 257° |
| 2026-05-05 14:49 | 35.00909 | 139.11015 | 29552 ft | 362 kts | 257° |
| 2026-05-05 14:50 | 35.00395 | 139.07966 | 30025 ft | 363 kts | 257° |
| 2026-05-05 14:50 | 34.99891 | 139.04986 | 30420 ft | 364 kts | 257° |
| 2026-05-05 14:50 | 34.99375 | 139.01944 | 30743 ft | 366 kts | 257° |
| 2026-05-05 14:50 | 34.98900 | 138.98897 | 31212 ft | 366 kts | 259° |
| 2026-05-05 14:51 | 34.98633 | 138.95812 | 31626 ft | 368 kts | 263° |
| 2026-05-05 14:51 | 34.98487 | 138.92699 | 32012 ft | 367 kts | 263° |
| 2026-05-05 14:51 | 34.98174 | 138.86540 | 32204 ft | 363 kts | 262° |
| 2026-05-05 14:52 | 34.97853 | 138.80404 | 32295 ft | 363 kts | 262° |
| 2026-05-05 14:52 | 34.97527 | 138.74276 | 32293 ft | 362 kts | 262° |
| 2026-05-05 14:53 | 34.97198 | 138.68148 | 32292 ft | 362 kts | 262° |
| 2026-05-05 14:53 | 34.96867 | 138.62022 | 32289 ft | 362 kts | 262° |
| 2026-05-05 14:54 | 34.96533 | 138.55890 | 32285 ft | 362 kts | 262° |
| 2026-05-05 14:54 | 34.96195 | 138.49756 | 32284 ft | 363 kts | 262° |
| 2026-05-05 14:55 | 34.95857 | 138.43655 | 32283 ft | 363 kts | 262° |
| 2026-05-05 14:55 | 34.95513 | 138.37515 | 32280 ft | 363 kts | 262° |
| 2026-05-05 14:56 | 34.95165 | 138.31362 | 32285 ft | 364 kts | 262° |
| 2026-05-05 14:56 | 34.94813 | 138.25204 | 32270 ft | 363 kts | 262° |
| 2026-05-05 14:57 | 34.94463 | 138.19096 | 32265 ft | 361 kts | 262° |
| 2026-05-05 14:57 | 34.94100 | 138.12901 | 32268 ft | 375 kts | 262° |
| 2026-05-05 14:58 | 34.93718 | 138.06432 | 32273 ft | 388 kts | 262° |
| 2026-05-05 14:58 | 34.93329 | 137.99820 | 32271 ft | 395 kts | 262° |
| 2026-05-05 14:59 | 34.92934 | 137.93141 | 32265 ft | 384 kts | 262° |
| 2026-05-05 14:59 | 34.92751 | 137.89981 | 32275 ft | 364 kts | 262° |
| 2026-05-05 14:59 | 34.92573 | 137.86970 | 32272 ft | 352 kts | 261° |
| 2026-05-05 15:00 | 34.92261 | 137.81960 | 32271 ft | 361 kts | 261° |
| 2026-05-05 15:00 | 34.91825 | 137.74885 | 32271 ft | 360 kts | 261° |
| 2026-05-05 15:01 | 34.91293 | 137.68841 | 32258 ft | 357 kts | 256° |
| 2026-05-05 15:01 | 34.90016 | 137.63026 | 32259 ft | 355 kts | 249° |
| 2026-05-05 15:02 | 34.88310 | 137.57374 | 32252 ft | 356 kts | 249° |
| 2026-05-05 15:02 | 34.86613 | 137.51705 | 32250 ft | 356 kts | 249° |
| 2026-05-05 15:03 | 34.84916 | 137.46039 | 32251 ft | 356 kts | 249° |
| 2026-05-05 15:03 | 34.83300 | 137.40380 | 32245 ft | 345 kts | 250° |
| 2026-05-05 15:04 | 34.82506 | 137.37576 | 32245 ft | 356 kts | 250° |
| 2026-05-05 15:04 | 34.81685 | 137.34694 | 32241 ft | 365 kts | 250° |
| 2026-05-05 15:04 | 34.79974 | 137.28720 | 32238 ft | 381 kts | 250° |
| 2026-05-05 15:05 | 34.77370 | 137.19662 | 32234 ft | 371 kts | 250° |
| 2026-05-05 15:05 | 34.76550 | 137.16815 | 32233 ft | 353 kts | 250° |
| 2026-05-05 15:06 | 34.75733 | 137.13982 | 32233 ft | 358 kts | 250° |
| 2026-05-05 15:06 | 34.74079 | 137.08266 | 32234 ft | 358 kts | 250° |
| 2026-05-05 15:07 | 34.72427 | 137.02559 | 32234 ft | 358 kts | 249° |
| 2026-05-05 15:07 | 34.70774 | 136.96863 | 32235 ft | 358 kts | 249° |
| 2026-05-05 15:08 | 34.69112 | 136.91150 | 32234 ft | 358 kts | 249° |
| 2026-05-05 15:08 | 34.67449 | 136.85441 | 32233 ft | 358 kts | 249° |
| 2026-05-05 15:09 | 34.65783 | 136.79737 | 32213 ft | 357 kts | 249° |
| 2026-05-05 15:09 | 34.64953 | 136.76898 | 31766 ft | 358 kts | 249° |
| 2026-05-05 15:09 | 34.64110 | 136.74022 | 30682 ft | 367 kts | 249° |
| 2026-05-05 15:09 | 34.63234 | 136.71038 | 29120 ft | 380 kts | 250° |
| 2026-05-05 15:10 | 34.62340 | 136.67989 | 27650 ft | 385 kts | 250° |
| 2026-05-05 15:10 | 34.61453 | 136.64968 | 26679 ft | 378 kts | 250° |
| 2026-05-05 15:10 | 34.60576 | 136.61980 | 26061 ft | 371 kts | 249° |
| 2026-05-05 15:10 | 34.59720 | 136.59068 | 25732 ft | 360 kts | 249° |
| 2026-05-05 15:11 | 34.58884 | 136.56229 | 25262 ft | 355 kts | 249° |
| 2026-05-05 15:11 | 34.58047 | 136.53390 | 24601 ft | 356 kts | 249° |
| 2026-05-05 15:11 | 34.57211 | 136.50559 | 23948 ft | 357 kts | 249° |
| 2026-05-05 15:11 | 34.56370 | 136.47711 | 22849 ft | 364 kts | 249° |
| 2026-05-05 15:12 | 34.55492 | 136.44747 | 21311 ft | 384 kts | 249° |
| 2026-05-05 15:12 | 34.54578 | 136.41662 | 20310 ft | 390 kts | 249° |
| 2026-05-05 15:12 | 34.53664 | 136.38573 | 19586 ft | 389 kts | 249° |
| 2026-05-05 15:12 | 34.52751 | 136.35491 | 18831 ft | 389 kts | 249° |
| 2026-05-05 15:13 | 34.51877 | 136.32386 | 18026 ft | 389 kts | 252° |
| 2026-05-05 15:13 | 34.51301 | 136.29193 | 17290 ft | 384 kts | 259° |
| 2026-05-05 15:13 | 34.50896 | 136.26013 | 16240 ft | 381 kts | 259° |
| 2026-05-05 15:13 | 34.50497 | 136.22888 | 15249 ft | 378 kts | 258° |
| 2026-05-05 15:14 | 34.50088 | 136.19705 | 14291 ft | 375 kts | 258° |
| 2026-05-05 15:14 | 34.49689 | 136.16635 | 13329 ft | 371 kts | 258° |
| 2026-05-05 15:14 | 34.49289 | 136.13569 | 12423 ft | 366 kts | 258° |
| 2026-05-05 15:14 | 34.48925 | 136.10529 | 11529 ft | 363 kts | 263° |
| 2026-05-05 15:15 | 34.48992 | 136.07501 | 10912 ft | 356 kts | 275° |
| 2026-05-05 15:15 | 34.49548 | 136.04610 | 10322 ft | 350 kts | 287° |
| 2026-05-05 15:15 | 34.50381 | 136.01751 | 10234 ft | 367 kts | 286° |
| 2026-05-05 15:15 | 34.51209 | 135.98824 | 10190 ft | 365 kts | 286° |
| 2026-05-05 15:16 | 34.52014 | 135.95956 | 10088 ft | 352 kts | 286° |
| 2026-05-05 15:16 | 34.52790 | 135.93192 | 9965 ft | 340 kts | 286° |
| 2026-05-05 15:16 | 34.53536 | 135.90536 | 9845 ft | 327 kts | 286° |
| 2026-05-05 15:16 | 34.54253 | 135.87977 | 9716 ft | 314 kts | 285° |
| 2026-05-05 15:17 | 34.54934 | 135.85518 | 9566 ft | 301 kts | 285° |
| 2026-05-05 15:17 | 34.55592 | 135.83128 | 9199 ft | 298 kts | 285° |
| 2026-05-05 15:17 | 34.56244 | 135.80756 | 8785 ft | 296 kts | 285° |
| 2026-05-05 15:17 | 34.56891 | 135.78402 | 8382 ft | 293 kts | 285° |
| 2026-05-05 15:18 | 34.57424 | 135.76469 | 8046 ft | 292 kts | 285° |
| 2026-05-05 15:18 | 34.58064 | 135.74141 | 7651 ft | 290 kts | 286° |
| 2026-05-05 15:18 | 34.58701 | 135.71828 | 7261 ft | 288 kts | 286° |
| 2026-05-05 15:18 | 34.59334 | 135.69527 | 6877 ft | 287 kts | 286° |
| 2026-05-05 15:19 | 34.59967 | 135.67237 | 6494 ft | 285 kts | 288° |
| 2026-05-05 15:19 | 34.60871 | 135.65099 | 6108 ft | 285 kts | 303° |
| 2026-05-05 15:19 | 34.62185 | 135.63326 | 5875 ft | 278 kts | 315° |
| 2026-05-05 15:19 | 34.63541 | 135.61729 | 5762 ft | 266 kts | 314° |
| 2026-05-05 15:20 | 34.64827 | 135.60183 | 5666 ft | 254 kts | 314° |
| 2026-05-05 15:20 | 34.66052 | 135.58702 | 5571 ft | 243 kts | 314° |
| 2026-05-05 15:20 | 34.67217 | 135.57278 | 5480 ft | 233 kts | 313° |
| 2026-05-05 15:20 | 34.68352 | 135.55899 | 5113 ft | 235 kts | 314° |
| 2026-05-05 15:21 | 34.69616 | 135.54449 | 4121 ft | 264 kts | 316° |
| 2026-05-05 15:21 | 34.71034 | 135.52877 | 2985 ft | 284 kts | 316° |
| 2026-05-05 15:21 | 34.72436 | 135.51148 | 2078 ft | 287 kts | 312° |
| 2026-05-05 15:21 | 34.73748 | 135.49342 | 1300 ft | 284 kts | 312° |
| 2026-05-05 15:22 | 34.75129 | 135.47666 | 686 ft | 277 kts | 320° |
| 2026-05-05 15:22 | 34.76484 | 135.46053 | 285 ft | 267 kts | 315° |
| 2026-05-05 15:22 | 34.77780 | 135.44545 | 300 ft | 263 kts | 317° |
| 2026-05-05 15:22 | 34.79173 | 135.42893 | 797 ft | 299 kts | 316° |
| 2026-05-05 15:23 | 34.80395 | 135.40735 | 1485 ft | 311 kts | 285° |
| 2026-05-05 15:23 | 34.80337 | 135.38206 | 3194 ft | 298 kts | 250° |
| 2026-05-05 15:23 | 34.79426 | 135.36065 | 3769 ft | 279 kts | 240° |
| 2026-05-05 15:23 | 34.78440 | 135.33871 | 2473 ft | 302 kts | 223° |
| 2026-05-05 15:24 | 34.76758 | 135.32826 | 2976 ft | 260 kts | 196° |
| 2026-05-05 15:24 | 34.75080 | 135.32951 | 3177 ft | 229 kts | 149° |
| 2026-05-05 15:24 | 34.74060 | 135.34283 | 4008 ft | 227 kts | 129° |